x

Fairweather Ground 105nm West Of Juno, Ak (46083) Wave Buoy

11:50pm - Tue 25th Jul 2017 All times are AKDT. -8 hours from GMT.

  • Sig Wave height 2.3ft
  • Swell Direction
  • Peak Period 5s
  • Average Period 5s
  • Wind
    2mph, 4mph gusts
  • Sea Temp 58°f
  • Air Temp 57°f
  • Sea Pressure 1014.2mb
  • Fairweather Ground 105nm West  Of Juno, Ak
  • Fairweather Ground 105nm West  Of Juno, Ak

More Historic Weather Station data

Upgrade to MSW Pro to gain access to the past 30 days of data for over 8000 Wavebouys and Weather Stations around the globe.

Join Pro

Comparision Forecast

View Surf forecast
   
Tue 07/25 11:50pm 2.5ft 5s 5s 2 4 mph 1014.2mb 58f 57f
10:50pm 2ft 6s 6s  -  0 mph 1014.5mb 58f 57f
9:50pm 2ft 14s 6s 2 2 mph 1014.8mb 58f 57f
8:50pm 2ft 15s 6s  -  2 mph 1015mb 58f 57f
7:50pm 1.6ft 14s 6s 2 2 mph 1015.2mb 58f 57f
6:50pm 1.6ft 15s 7s 2 2 mph 1015.4mb 58f 57f
5:50pm 1.6ft 14s 7s  -  2 mph 1015.7mb 58f 57f
4:50pm 1.6ft 12s 7s  -  0 mph 1016.1mb 59f 59f
3:50pm 1.6ft 13s 6s  -  2 mph 1016.4mb 59f 59f
2:50pm 1.6ft 14s 6s 2 4 mph 1016.7mb 58f 58f
1:50pm 1.6ft 14s 6s 4 4 mph 1016.9mb 58f 57f
12:50pm 1.6ft 11s 6s 2 2 mph 1017mb 58f 57f
11:50am 1.6ft 14s 7s 2 4 mph 1017.2mb 58f 57f
10:50am 1.6ft 14s 6s  -  2 mph 1017.4mb 57f 56f
9:50am 1.6ft 12s 6s 4 4 mph 1017.5mb 57f 56f
8:50am 2ft 14s 7s 4 7 mph 1017.5mb 57f 55f
7:50am 2ft 15s 7s 4 7 mph 1017.6mb 57f 55f
6:50am 1.6ft 14s 6s 4 4 mph 1017.6mb 57f 55f
5:50am 2ft 14s 7s  -  2 mph 1017.6mb 57f 55f
4:50am 2ft 14s 7s 4 4 mph 1017.5mb 56f 55f
3:50am 1.6ft 13s 7s 4 4 mph 1017.7mb 57f 57f
2:50am 2ft 14s 7s 2 2 mph 1017.9mb 57f 57f
1:50am 2ft 14s 7s 4 4 mph 1018.3mb 57f 56f
12:50am 2ft 15s 7s 4 7 mph 1018.7mb 57f 56f
Mon 07/24 11:50pm 2ft 15s 6s 7 9 mph 1018.8mb 57f 57f
10:50pm 2ft 15s 6s 7 9 mph 1019.2mb 58f 57f
9:50pm 2ft 15s 6s 9 9 mph 1019.4mb 58f 57f
8:50pm 2.5ft 11s 6s 7 9 mph 1019.5mb 58f 57f
7:50pm 2.5ft 14s 6s 9 9 mph 1019.6mb 58f 57f
6:50pm 2.5ft 11s 6s 7 9 mph 1019.8mb 58f 57f
5:50pm 2.5ft 14s 6s 7 9 mph 1020.1mb 57f 57f
4:50pm 2.5ft 15s 6s 7 7 mph 1020.5mb 57f 57f
3:50pm 2.5ft 14s 7s 9 11 mph 1020.9mb 57f 56f
2:50pm 2.5ft 7s 6s 9 11 mph 1021.3mb 57f 56f
1:50pm 2.5ft 14s 7s 9 11 mph 1021.7mb 57f 56f
12:50pm 2.5ft 14s 6s 9 11 mph 1022mb 57f 56f
11:50am 2.5ft 11s 6s 7 7 mph 1022.5mb 57f 56f
10:50am 2.5ft 12s 7s 4 7 mph 1022.7mb 57f 56f
9:50am 2.5ft 14s 6s 2 4 mph 1022.9mb 57f 57f
8:50am 2.5ft 11s 6s 9 11 mph 1023mb 57f 57f
7:50am 2.5ft 14s 7s 4 4 mph 1023.1mb 57f 58f
6:50am 2.5ft 7s 6s 7 9 mph 1023mb 57f 57f
5:50am 3ft 7s 6s 9 11 mph 1023.1mb 57f 57f
4:50am 2.5ft 7s 6s 7 9 mph 1023.2mb 57f 57f
3:50am 3ft 7s  -  11 11 mph 1023.2mb 57f 57f
2:50am 3ft 8s 7s 11 11 mph 1023.6mb 57f 57f
1:50am 3ft 7s 6s 11 13 mph 1023.8mb 57f 57f
12:50am 3ft 7s 7s 9 11 mph 1024.1mb 57f 57f
Sun 07/23 11:50pm 3ft 7s 6s 9 11 mph 1024.3mb 57f 57f
10:50pm 3ft 7s 7s 7 9 mph 1024.4mb 57f 58f
9:50pm 3ft 7s 6s 9 11 mph 1024.2mb 57f 58f
8:50pm 3ft 7s 6s 9 11 mph 1024.2mb 57f 58f
7:50pm 3.5ft 7s 6s 7 7 mph 1024.2mb 58f 58f
6:50pm 3.5ft 7s 6s 7 9 mph 1024.4mb 58f 58f
5:50pm 3.5ft 8s 6s 11 13 mph 1024.6mb 58f 58f
4:50pm 3.5ft 7s 6s 9 11 mph 1025mb 58f 58f
3:50pm 3.5ft 7s 6s 9 11 mph 1025mb 58f 58f
2:50pm 3.5ft 8s 7s 9 11 mph 1025.2mb 58f 58f
1:50pm 3.5ft 8s 7s 9 11 mph 1025.1mb 58f 58f
12:50pm 3.5ft 8s 7s 9 11 mph 1025mb 58f 57f
11:50am 3.5ft 8s 7s 9 11 mph 1024.9mb 57f 57f
10:50am 3.5ft 9s 7s 9 11 mph 1024.6mb 57f 58f
9:50am 4.5ft 8s 7s 7 7 mph 1024.4mb 57f 57f
8:50am 4.5ft 8s 7s 7 9 mph 1024.2mb 57f 57f
7:50am 4.5ft 8s 7s 7 7 mph 1023.9mb 56f 57f
6:50am 5ft 8s 7s 4 4 mph 1023.7mb 56f 57f
5:50am 5ft 8s 7s 4 4 mph 1023.2mb 56f 56f
4:50am 5ft 8s 7s 2 4 mph 1022.8mb 56f 56f
3:50am 5ft 7s 7s 2 4 mph 1022.4mb 56f 56f
2:50am 4ft 8s 7s 4 4 mph 1022.1mb 55f 56f
1:50am 4.5ft 8s 7s 4 4 mph 1021.7mb 55f 56f
12:50am 3.5ft 8s 7s  -  2 mph 1021.2mb 56f 56f
Sat 07/22 11:50pm 3.5ft 7s 6s  -  0 mph 1020.6mb 56f 56f
10:50pm 3.5ft 8s 7s  -  2 mph 1020.3mb 57f 57f
9:50pm 3.5ft 8s 7s 4 7 mph 1019.6mb 57f 57f
8:50pm 4ft 8s 7s 7 7 mph 1018.9mb 57f 57f
7:50pm 4ft 8s 7s 9 9 mph 1018.1mb 57f 57f
6:50pm 4ft 8s 7s 11 11 mph 1017.4mb 57f 57f
5:50pm 4ft 8s 7s 7 9 mph 1016.8mb 57f 57f
4:50pm 4ft 8s 7s 9 11 mph 1015.9mb 57f 56f
3:50pm 3.5ft 8s 6s 7 9 mph 1015.2mb 57f 56f
2:50pm 4ft 8s 6s 7 9 mph 1014.6mb 57f 56f
1:50pm 3.5ft 8s 5s 18 20 mph 1013.4mb 57f 56f
12:50pm 3.5ft 8s 5s 16 18 mph 1012.6mb 57f 56f
11:50am 4ft 8s 6s 4 7 mph 1011.9mb 57f 57f
10:50am 4ft 8s 7s 9 11 mph 1010.8mb 55f 56f
9:50am 3.5ft 8s 6s 11 13 mph 1009.9mb 55f 58f